Terminal Aerodrome Forecast
Issued by NWS La Crosse, WI

Home | Current Version | Previous Version | Text Only | Print | Product List | Glossary On
Versions: 1 2 3 4 5 6 7 8 9 10 11 12 13 14 15 16 17
000
FTUS43 KARX 032330
TAFRST
TAF
KRST 032330Z 0400/0424 28014KT P6SM BKN110
      TEMPO 0400/0402 P6SM -SHRA BKN045
     FM040200 32010KT P6SM SCT080
     FM040500 35013KT P6SM SKC
     FM041500 35015G25KT P6SM SCT040=

USA.gov is the U.S. government's official web portal to all federal, state and local government web resources and services.